Time;durP1;ratioP1;P1;durP2;ratioP2;P2;SDS_P1;SDS_P2;PMS_P1;PMS_P2;Temp;Humidity;BMP_temperature;BMP_pressure;BME280_temperature;BME280_humidity;BME280_pressure;Samples;Min_cycle;Max_cycle;Signal;HPM_P1;HPM_P2
2022/12/17 13:07:29;;;;;;;84.28;36.13;;;0.70;99.90;;;;;;5090352;28;20044;-51
2022/12/17 13:09:58;;;;;;;80.68;36.67;;;0.70;99.90;;;;;;5091323;28;20043;-49
2022/12/17 13:12:31;;;;;;;72.22;35.20;;;0.60;99.90;;;;;;5085632;28;20032;-49
2022/12/17 13:15:06;;;;;;;73.45;37.08;;;0.60;99.90;;;;;;5080457;28;20127;-48
2022/12/17 13:18:19;;;;;;;83.47;36.78;;;0.40;99.90;;;;;;5084286;28;20044;-46
2022/12/17 13:21:00;;;;;;;85.22;38.08;;;0.40;99.90;;;;;;5080802;28;20109;-45
2022/12/17 13:23:30;;;;;;;79.35;36.67;;;0.40;99.90;;;;;;5078126;28;20587;-49
2022/12/17 13:26:20;;;;;;;85.60;36.70;;;0.40;99.90;;;;;;5083137;28;20063;-46
2022/12/17 13:28:59;;;;;;;87.97;37.25;;;0.40;99.90;;;;;;5082562;28;20044;-45
2022/12/17 13:31:39;;;;;;;82.05;37.00;;;0.30;99.90;;;;;;5082369;28;20051;-45
2022/12/17 13:34:27;;;;;;;85.50;37.83;;;0.40;99.90;;;;;;5078332;28;20044;-47
2022/12/17 13:37:19;;;;;;;82.88;37.97;;;0.30;99.90;;;;;;5085073;28;20043;-49
2022/12/17 13:40:11;;;;;;;79.28;35.28;;;0.30;99.90;;;;;;5083527;28;20760;-48
2022/12/17 13:42:37;;;;;;;83.45;37.35;;;0.30;99.90;;;;;;5081913;28;20045;-44
2022/12/17 13:45:04;;;;;;;86.20;36.95;;;0.30;99.90;;;;;;5080273;28;20032;-46
2022/12/17 13:47:34;;;;;;;83.35;35.97;;;0.30;99.90;;;;;;5086649;28;20048;-46
2022/12/17 13:50:17;;;;;;;82.68;38.05;;;0.20;99.90;;;;;;5084179;28;20036;-46
2022/12/17 13:52:42;;;;;;;83.85;37.47;;;0.50;99.90;;;;;;5077876;28;20044;-45
2022/12/17 13:55:16;;;;;;;81.38;36.30;;;0.10;99.90;;;;;;5078752;28;20043;-48
2022/12/17 13:57:44;;;;;;;80.57;35.33;;;0.10;99.90;;;;;;5069960;28;20593;-46
2022/12/17 14:00:19;;;;;;;79.82;36.47;;;0.00;99.90;;;;;;5084514;28;20036;-46
2022/12/17 14:02:44;;;;;;;82.05;36.28;;;0.00;99.90;;;;;;5083020;28;20127;-45
2022/12/17 14:05:40;;;;;;;81.78;35.55;;;-0.10;99.90;;;;;;5081169;28;20119;-45
2022/12/17 14:08:06;;;;;;;84.35;34.80;;;-0.10;99.90;;;;;;5084551;28;20149;-46
2022/12/17 14:10:32;;;;;;;77.22;34.78;;;-0.10;99.90;;;;;;5088641;28;20158;-46
2022/12/17 14:13:12;;;;;;;81.97;37.05;;;-0.10;99.90;;;;;;5086271;28;20523;-49
2022/12/17 14:15:43;;;;;;;85.15;35.90;;;-0.10;99.90;;;;;;5087715;28;20048;-44
2022/12/17 14:18:14;;;;;;;85.93;37.90;;;-0.20;99.90;;;;;;5088260;28;20040;-46
2022/12/17 14:20:40;;;;;;;86.85;37.28;;;-0.20;99.90;;;;;;5088246;28;20044;-46
2022/12/17 14:23:15;;;;;;;76.15;34.75;;;-0.20;99.90;;;;;;5086705;28;20048;-45
2022/12/17 14:25:43;;;;;;;80.95;35.85;;;-0.30;99.90;;;;;;5083697;28;20043;-45
2022/12/17 14:28:22;;;;;;;82.07;35.47;;;-0.30;99.90;;;;;;5089966;28;20335;-45
2022/12/17 14:30:48;;;;;;;75.57;31.63;;;-0.30;99.90;;;;;;5085893;28;20147;-44
2022/12/17 14:33:35;;;;;;;78.32;33.55;;;-0.40;99.90;;;;;;5082019;28;20068;-47
2022/12/17 14:36:06;;;;;;;79.93;32.20;;;-0.50;99.90;;;;;;5069210;28;20040;-44
2022/12/17 14:38:32;;;;;;;79.38;32.42;;;-0.50;99.90;;;;;;5088697;28;20036;-46
2022/12/17 14:43:59;;;;;;;77.63;31.02;;;-0.60;99.90;;;;;;5087508;28;20047;-47
2022/12/17 14:46:24;;;;;;;80.80;33.72;;;-0.60;99.90;;;;;;5090199;28;20082;-44
2022/12/17 14:49:02;;;;;;;78.75;31.58;;;-0.70;99.90;;;;;;5088595;28;20451;-45
2022/12/17 14:51:40;;;;;;;79.35;31.25;;;-0.60;99.90;;;;;;5091956;28;20106;-44
2022/12/17 14:54:31;;;;;;;81.43;31.83;;;-0.70;99.90;;;;;;5058010;28;20036;-46
2022/12/17 14:56:58;;;;;;;83.25;33.47;;;-0.70;99.90;;;;;;5075682;28;20483;-48
2022/12/17 14:59:35;;;;;;;82.50;33.33;;;-0.70;99.90;;;;;;5093862;28;20451;-47
2022/12/17 15:02:22;;;;;;;81.55;32.60;;;-0.80;99.90;;;;;;5093746;28;20541;-45
2022/12/17 15:04:50;;;;;;;76.10;30.13;;;-0.80;99.90;;;;;;5092568;28;20043;-45
2022/12/17 15:07:27;;;;;;;86.30;32.15;;;-0.80;99.90;;;;;;5091016;28;20048;-45
2022/12/17 15:09:54;;;;;;;76.63;32.20;;;-0.80;99.90;;;;;;5092100;28;20071;-44
2022/12/17 15:12:21;;;;;;;75.60;31.52;;;-0.80;99.90;;;;;;5090841;28;20032;-44
2022/12/17 15:14:47;;;;;;;76.60;30.27;;;-0.90;99.90;;;;;;5093499;28;20075;-44
2022/12/17 15:17:14;;;;;;;86.93;33.53;;;-0.90;99.90;;;;;;5093576;28;20124;-45
2022/12/17 15:19:40;;;;;;;74.78;30.75;;;-1.10;99.90;;;;;;5091703;28;20135;-45
2022/12/17 15:22:12;;;;;;;70.30;28.23;;;-1.10;99.90;;;;;;5087799;28;20405;-46
2022/12/17 15:24:38;;;;;;;81.90;31.30;;;-0.20;99.90;;;;;;5087695;28;20481;-48
2022/12/17 15:27:04;;;;;;;78.35;30.80;;;-1.20;99.90;;;;;;5079651;28;20032;-47
2022/12/17 15:29:30;;;;;;;74.75;29.08;;;-1.20;99.90;;;;;;5081724;28;20064;-47
2022/12/17 15:31:56;;;;;;;74.15;29.65;;;-1.20;99.90;;;;;;5081709;28;20044;-44
2022/12/17 15:34:22;;;;;;;76.20;30.63;;;-1.30;99.90;;;;;;5080615;28;20032;-47
2022/12/17 15:36:47;;;;;;;76.38;29.35;;;-1.30;99.90;;;;;;5085327;28;20411;-47
2022/12/17 15:39:13;;;;;;;84.05;31.52;;;-1.30;99.90;;;;;;5082312;28;20043;-45
2022/12/17 15:44:23;;;;;;;81.45;31.65;;;-1.30;99.90;;;;;;5086093;28;20044;-49
2022/12/17 15:46:48;;;;;;;84.25;31.55;;;-1.30;99.90;;;;;;5086870;28;20032;-45
2022/12/17 15:49:14;;;;;;;80.10;29.98;;;-1.00;99.90;;;;;;5065090;28;20131;-46
2022/12/17 15:51:40;;;;;;;77.10;29.55;;;-1.30;99.90;;;;;;5086419;28;20702;-48
2022/12/17 15:54:05;;;;;;;80.28;30.50;;;-1.30;99.90;;;;;;5084183;28;20036;-47
2022/12/17 15:56:32;;;;;;;81.43;30.15;;;-1.20;99.90;;;;;;5085971;28;20463;-45
2022/12/17 15:58:58;;;;;;;81.18;30.05;;;-1.30;99.90;;;;;;5086045;28;20050;-45
2022/12/17 16:01:24;;;;;;;91.18;33.17;;;-1.30;99.90;;;;;;5079756;28;20040;-50
2022/12/17 16:03:51;;;;;;;89.18;30.80;;;-1.40;99.90;;;;;;5077054;28;20039;-46
2022/12/17 16:06:17;;;;;;;83.10;29.17;;;-1.40;99.90;;;;;;5082696;28;20047;-47
2022/12/17 16:08:42;;;;;;;84.53;31.23;;;-1.50;99.90;;;;;;5083952;28;20092;-46
2022/12/17 16:11:13;;;;;;;85.18;30.42;;;-1.40;99.90;;;;;;5079084;28;20028;-46
2022/12/17 16:13:39;;;;;;;78.43;28.02;;;-1.40;99.90;;;;;;5083821;28;20036;-45
2022/12/17 16:16:05;;;;;;;81.72;29.25;;;-1.40;99.90;;;;;;5083509;28;20448;-47
2022/12/17 16:18:31;;;;;;;87.60;30.00;;;-1.50;99.90;;;;;;5070767;28;20040;-44
2022/12/17 16:21:15;;;;;;;83.88;29.20;;;-1.50;99.90;;;;;;5085219;28;20039;-45
2022/12/17 16:23:41;;;;;;;79.97;29.48;;;-1.60;99.90;;;;;;5071417;28;20483;-48
2022/12/17 16:26:09;;;;;;;79.90;29.98;;;-1.50;99.90;;;;;;5085328;28;20101;-46
2022/12/17 16:28:35;;;;;;;79.57;27.67;;;-1.60;99.90;;;;;;5084470;28;20043;-48
2022/12/17 16:31:06;;;;;;;77.32;29.00;;;-1.60;99.90;;;;;;5082274;28;20068;-44
2022/12/17 16:33:34;;;;;;;79.95;27.75;;;-2.00;99.90;;;;;;5070429;28;20054;-47
2022/12/17 16:36:00;;;;;;;86.07;29.67;;;-1.60;99.90;;;;;;5086068;28;20035;-44
2022/12/17 16:38:26;;;;;;;91.40;31.65;;;-1.60;99.90;;;;;;5083523;28;20040;-47
2022/12/17 16:40:56;;;;;;;83.22;28.95;;;-1.70;99.90;;;;;;5064986;28;20070;-45
2022/12/17 16:43:22;;;;;;;79.65;28.30;;;-1.70;99.90;;;;;;5082289;28;20492;-44
2022/12/17 16:45:50;;;;;;;80.63;27.77;;;-1.70;99.90;;;;;;5084307;28;20063;-43
2022/12/17 16:48:18;;;;;;;82.82;27.50;;;-1.80;99.90;;;;;;5047019;28;20132;-44
2022/12/17 16:50:44;;;;;;;83.68;28.55;;;-1.90;99.90;;;;;;5078843;28;20720;-45
2022/12/17 16:53:10;;;;;;;82.20;27.60;;;-1.80;99.90;;;;;;5076264;28;20042;-46
2022/12/17 16:55:43;;;;;;;75.47;25.42;;;-1.80;99.90;;;;;;5082829;28;20048;-45
2022/12/17 16:58:09;;;;;;;81.95;26.67;;;-1.80;99.90;;;;;;5070901;28;20093;-47
2022/12/17 17:00:35;;;;;;;81.20;26.65;;;-1.80;99.90;;;;;;5085761;28;20045;-44
2022/12/17 17:03:02;;;;;;;85.00;28.05;;;-1.90;99.90;;;;;;5084060;28;20383;-43
2022/12/17 17:05:31;;;;;;;80.70;28.58;;;-2.00;99.90;;;;;;5083552;28;20055;-43
2022/12/17 17:07:58;;;;;;;84.60;28.33;;;-1.90;99.90;;;;;;5087882;28;20110;-46
2022/12/17 17:10:24;;;;;;;80.55;27.27;;;-2.00;99.90;;;;;;5084965;28;20035;-45
2022/12/17 17:12:51;;;;;;;78.70;28.00;;;-1.80;99.90;;;;;;5086985;28;20040;-45
2022/12/17 17:15:17;;;;;;;92.40;31.48;;;-2.00;99.90;;;;;;5087770;28;20046;-46
2022/12/17 17:17:43;;;;;;;79.75;27.67;;;-1.90;99.90;;;;;;5090376;28;20040;-46
2022/12/17 17:20:09;;;;;;;81.15;27.58;;;-2.00;99.90;;;;;;5071500;28;20040;-46
2022/12/17 17:22:35;;;;;;;84.45;28.27;;;-2.10;99.90;;;;;;5071565;28;20044;-45
2022/12/17 17:25:01;;;;;;;88.20;29.30;;;-1.90;99.90;;;;;;5089204;28;20437;-45
2022/12/17 17:27:26;;;;;;;86.60;28.48;;;-2.00;99.90;;;;;;5090191;28;20563;-45
2022/12/17 17:29:52;;;;;;;90.88;29.33;;;-1.90;99.90;;;;;;5090314;28;20032;-44
2022/12/17 17:32:18;;;;;;;81.47;28.80;;;-2.00;99.90;;;;;;5071531;28;20578;-46
2022/12/17 17:34:43;;;;;;;84.03;28.80;;;-2.00;99.90;;;;;;5071849;28;20502;-48
2022/12/17 17:37:09;;;;;;;87.80;29.88;;;-1.90;99.90;;;;;;5090963;28;20476;-43
2022/12/17 17:39:35;;;;;;;90.78;28.80;;;-1.90;99.90;;;;;;5072330;28;20051;-46
2022/12/17 17:42:01;;;;;;;89.60;29.15;;;-2.10;99.90;;;;;;5072181;28;20032;-45
2022/12/17 17:44:27;;;;;;;86.93;29.55;;;-2.00;99.90;;;;;;5055903;28;20119;-47
2022/12/17 17:46:52;;;;;;;76.80;26.95;;;-1.80;99.90;;;;;;5089646;28;20131;-44
2022/12/17 17:49:18;;;;;;;86.40;29.05;;;-1.90;99.90;;;;;;5089296;28;20035;-47
2022/12/17 17:51:44;;;;;;;87.38;29.23;;;-1.90;99.90;;;;;;5090252;28;20558;-44
2022/12/17 17:54:09;;;;;;;77.85;26.35;;;-2.10;99.90;;;;;;5089806;28;21021;-44
2022/12/17 17:56:38;;;;;;;90.18;29.77;;;-2.00;99.90;;;;;;5090386;28;20047;-44
2022/12/17 17:59:07;;;;;;;86.10;28.45;;;-2.20;99.90;;;;;;5090364;28;20057;-46
2022/12/17 18:01:36;;;;;;;97.20;28.58;;;-2.10;99.90;;;;;;5090453;28;20189;-43
2022/12/17 18:04:03;;;;;;;91.00;30.77;;;-2.10;99.90;;;;;;5069562;28;20268;-44
2022/12/17 18:06:29;;;;;;;92.45;30.55;;;-2.00;99.90;;;;;;5089370;28;20131;-45
2022/12/17 18:08:56;;;;;;;89.30;28.83;;;-2.00;99.90;;;;;;5082071;28;20173;-46
2022/12/17 18:11:22;;;;;;;80.88;28.83;;;-2.00;99.90;;;;;;5085370;28;20036;-45
2022/12/17 18:13:54;;;;;;;81.25;29.70;;;-2.00;99.90;;;;;;5085975;28;20067;-46
2022/12/17 18:16:41;;;;;;;77.18;27.65;;;-2.10;99.90;;;;;;5077967;28;20033;-46
2022/12/17 18:19:18;;;;;;;83.00;27.55;;;-2.20;99.90;;;;;;5086762;28;20088;-45
2022/12/17 18:21:45;;;;;;;78.95;28.50;;;-2.00;99.90;;;;;;5086330;28;20513;-46
2022/12/17 18:24:14;;;;;;;76.82;27.30;;;-2.00;99.90;;;;;;5086790;28;20399;-44
2022/12/17 18:26:41;;;;;;;80.78;28.55;;;-2.30;99.90;;;;;;5083194;28;20028;-44
2022/12/17 18:29:13;;;;;;;83.70;28.95;;;-2.10;99.90;;;;;;5085518;28;20097;-45
2022/12/17 18:31:39;;;;;;;84.95;29.40;;;-2.20;99.90;;;;;;5086496;28;20109;-47
2022/12/17 18:34:06;;;;;;;73.57;27.52;;;-2.20;99.90;;;;;;5085621;28;20115;-45
2022/12/17 18:36:36;;;;;;;76.53;27.70;;;-2.30;99.90;;;;;;5088016;28;20036;-46
2022/12/17 18:39:07;;;;;;;77.47;29.42;;;-2.20;99.90;;;;;;5084823;28;20078;-44
2022/12/17 18:44:18;;;;;;;;;;;-2.40;99.90;;;;;;5081824;28;20430;-45
2022/12/17 18:46:44;;;;;;;79.95;27.58;;;-2.30;99.90;;;;;;5079356;28;20418;-45
2022/12/17 18:49:12;;;;;;;69.75;27.55;;;-2.50;99.90;;;;;;5083346;28;20040;-46
2022/12/17 18:51:40;;;;;;;69.45;25.83;;;-2.30;99.90;;;;;;5080893;28;20067;-48
2022/12/17 18:54:07;;;;;;;80.07;29.35;;;-2.50;99.90;;;;;;5082062;28;20174;-47
2022/12/17 18:56:35;;;;;;;87.88;30.67;;;-2.50;99.90;;;;;;5080747;28;20047;-45
2022/12/17 18:59:01;;;;;;;81.18;30.15;;;-2.40;99.90;;;;;;5077440;28;20063;-46
2022/12/17 19:01:32;;;;;;;82.40;30.02;;;-2.30;99.90;;;;;;5080920;28;20051;-44
2022/12/17 19:04:07;;;;;;;74.47;27.95;;;-2.40;99.90;;;;;;5081046;28;20044;-48
2022/12/17 19:06:35;;;;;;;90.18;32.55;;;-2.30;99.90;;;;;;5079295;28;20775;-43
2022/12/17 19:09:02;;;;;;;94.18;30.52;;;-2.10;99.90;;;;;;5079384;28;20127;-46
2022/12/17 19:11:31;;;;;;;95.40;34.47;;;-2.50;99.90;;;;;;5083271;28;20040;-45
2022/12/17 19:13:57;;;;;;;79.22;29.92;;;-2.30;99.90;;;;;;5063709;28;20040;-47
2022/12/17 19:16:25;;;;;;;76.55;30.17;;;-2.50;99.90;;;;;;5078844;28;20044;-48
2022/12/17 19:18:57;;;;;;;93.28;33.80;;;-2.60;99.90;;;;;;5079715;28;20039;-47
2022/12/17 19:21:23;;;;;;;85.93;29.13;;;-2.50;99.90;;;;;;5050710;28;20122;-48
2022/12/17 19:23:54;;;;;;;86.07;30.00;;;-2.40;99.90;;;;;;5065037;28;20043;-47
2022/12/17 19:26:21;;;;;;;81.50;31.65;;;-2.40;99.90;;;;;;5079068;28;20055;-46
2022/12/17 19:28:49;;;;;;;91.13;33.22;;;-2.50;99.90;;;;;;5080177;28;20040;-44
2022/12/17 19:31:16;;;;;;;84.40;30.88;;;-2.50;99.90;;;;;;5084521;28;20052;-44
2022/12/17 19:33:42;;;;;;;81.88;28.65;;;-2.60;99.90;;;;;;5084418;28;20545;-45
2022/12/17 19:36:12;;;;;;;85.93;30.10;;;-2.40;99.90;;;;;;5084800;28;20032;-46
2022/12/17 19:38:38;;;;;;;88.22;30.20;;;-2.60;99.90;;;;;;5086726;28;20038;-44
2022/12/17 19:41:13;;;;;;;91.47;30.77;;;-2.60;99.90;;;;;;5085069;28;20441;-45
2022/12/17 19:43:40;;;;;;;86.63;29.20;;;-2.60;99.90;;;;;;5084133;28;20036;-49
2022/12/17 19:46:09;;;;;;;85.82;30.27;;;-2.40;99.90;;;;;;5081324;28;20047;-45
2022/12/17 19:48:36;;;;;;;81.72;29.42;;;-2.40;99.90;;;;;;5069213;28;20040;-49
2022/12/17 19:51:03;;;;;;;87.70;29.00;;;-2.50;99.90;;;;;;5084259;28;20043;-44
2022/12/17 19:53:31;;;;;;;84.50;30.65;;;-2.70;99.90;;;;;;5082363;28;20559;-45
2022/12/17 19:56:11;;;;;;;78.50;28.52;;;-2.60;99.90;;;;;;5084934;28;20051;-44
2022/12/17 19:58:40;;;;;;;79.18;29.00;;;-2.70;99.90;;;;;;5080282;28;20037;-47
2022/12/17 20:01:17;;;;;;;79.60;29.42;;;-2.10;99.90;;;;;;5085122;28;20035;-45
2022/12/17 20:03:44;;;;;;;81.60;29.33;;;-2.60;99.90;;;;;;5084328;28;20127;-44
2022/12/17 20:06:11;;;;;;;81.70;29.52;;;-2.70;99.90;;;;;;5082043;28;20694;-47
2022/12/17 20:08:37;;;;;;;78.25;29.67;;;-2.70;99.90;;;;;;5084912;28;20434;-42
2022/12/17 20:11:48;;;;;;;82.95;31.55;;;-2.80;99.90;;;;;;5070079;28;20052;-45
2022/12/17 20:13:56;;;;;;;87.25;31.58;;;-2.60;99.90;;;;;;5077869;28;20059;-49
2022/12/17 20:16:22;;;;;;;79.95;31.17;;;-2.60;99.90;;;;;;5082855;28;20052;-45
2022/12/17 20:18:48;;;;;;;92.13;31.58;;;-2.60;99.90;;;;;;5087309;28;20040;-43
2022/12/17 20:21:14;;;;;;;81.07;30.80;;;-2.60;99.90;;;;;;5086058;28;20411;-46
2022/12/17 20:23:40;;;;;;;95.30;31.25;;;-2.20;99.90;;;;;;5085451;28;20143;-46
2022/12/17 20:26:08;;;;;;;101.60;32.50;;;-2.50;99.90;;;;;;5085692;28;20093;-44
2022/12/17 20:28:35;;;;;;;90.38;34.17;;;-2.70;99.90;;;;;;5088953;28;20058;-45
2022/12/17 20:31:02;;;;;;;94.80;33.08;;;-2.80;99.90;;;;;;5089093;28;20036;-44
2022/12/17 20:33:28;;;;;;;80.20;29.00;;;-2.70;99.90;;;;;;5089674;28;20375;-43
2022/12/17 20:35:54;;;;;;;87.97;30.23;;;-2.80;99.90;;;;;;5086960;28;20039;-44
2022/12/17 20:38:20;;;;;;;75.47;27.92;;;-2.60;99.90;;;;;;5089674;28;20119;-44
2022/12/17 20:40:46;;;;;;;86.30;32.60;;;-2.90;99.90;;;;;;5088095;28;20036;-47
2022/12/17 20:43:12;;;;;;;80.57;29.08;;;-2.20;99.90;;;;;;5087447;28;20045;-47
2022/12/17 20:45:37;;;;;;;78.10;28.25;;;-2.60;99.90;;;;;;5088674;28;20048;-47
2022/12/17 20:48:03;;;;;;;85.60;29.77;;;-2.70;99.90;;;;;;5089187;28;20057;-45
2022/12/17 20:50:29;;;;;;;75.70;27.95;;;-2.70;99.90;;;;;;5088522;28;20038;-44
2022/12/17 20:52:56;;;;;;;84.90;27.75;;;-2.80;99.90;;;;;;5088427;28;20407;-46
2022/12/17 20:55:22;;;;;;;87.88;30.00;;;-2.70;99.90;;;;;;5087554;28;20039;-50
2022/12/17 20:57:48;;;;;;;82.25;27.42;;;-2.90;99.90;;;;;;5087859;28;20391;-48
2022/12/17 21:00:13;;;;;;;76.32;28.15;;;-2.60;99.90;;;;;;5087935;28;20047;-43
2022/12/17 21:02:39;;;;;;;85.28;30.17;;;-2.70;99.90;;;;;;5087214;28;20040;-47
2022/12/17 21:05:05;;;;;;;97.78;30.67;;;-2.60;99.90;;;;;;5087991;28;20048;-43
2022/12/17 21:07:31;;;;;;;90.57;32.00;;;-2.80;99.90;;;;;;5087711;28;20139;-45
2022/12/17 21:09:56;;;;;;;86.93;27.67;;;-2.90;99.90;;;;;;5086667;28;20032;-47
2022/12/17 21:13:27;;;;;;;87.55;27.50;;;-2.90;99.90;;;;;;5088801;28;20040;-48
2022/12/17 21:15:08;;;;;;;79.55;27.38;;;-2.70;99.90;;;;;;5089790;28;20067;-44
2022/12/17 21:17:34;;;;;;;74.30;27.13;;;-2.90;99.90;;;;;;5087021;28;20082;-48
2022/12/17 21:19:59;;;;;;;85.35;30.55;;;-2.60;99.90;;;;;;5088134;28;20035;-44
2022/12/17 21:22:25;;;;;;;90.35;29.95;;;-2.80;99.90;;;;;;5088235;28;20407;-43
2022/12/17 21:24:51;;;;;;;77.93;27.55;;;-2.60;99.90;;;;;;5069129;28;20055;-45
2022/12/17 21:27:16;;;;;;;76.78;26.15;;;-2.70;99.90;;;;;;5086459;28;20090;-45
2022/12/17 21:29:42;;;;;;;73.88;26.35;;;-3.00;99.90;;;;;;5087648;28;20180;-46
2022/12/17 21:32:08;;;;;;;84.57;28.88;;;-2.70;99.90;;;;;;5084578;28;20032;-43
2022/12/17 21:34:34;;;;;;;91.85;29.27;;;-2.70;99.90;;;;;;5088546;28;20032;-47
2022/12/17 21:36:59;;;;;;;86.97;29.20;;;-2.80;99.90;;;;;;5085284;28;20122;-43
2022/12/17 21:39:25;;;;;;;90.13;30.02;;;-2.70;99.90;;;;;;5087384;28;20134;-44
2022/12/17 21:44:35;;;;;;;88.63;29.38;;;-2.80;99.90;;;;;;5085691;28;20391;-43
2022/12/17 21:47:01;;;;;;;86.32;28.48;;;-3.00;99.90;;;;;;5086456;28;20040;-43
2022/12/17 21:49:26;;;;;;;97.28;30.55;;;-3.00;99.90;;;;;;5087609;28;20074;-45
2022/12/17 21:51:52;;;;;;;93.82;29.10;;;-2.70;99.90;;;;;;5088393;28;20032;-45
2022/12/17 21:54:18;;;;;;;102.72;30.17;;;-2.90;99.90;;;;;;5086190;28;20043;-44
2022/12/17 21:56:43;;;;;;;98.60;28.88;;;-2.80;99.90;;;;;;5087279;28;20127;-44
2022/12/17 21:59:10;;;;;;;98.22;29.85;;;-2.80;99.90;;;;;;5085377;28;20540;-45
2022/12/17 22:01:36;;;;;;;96.47;29.13;;;-2.70;99.90;;;;;;5088429;28;20062;-44
2022/12/17 22:04:03;;;;;;;93.38;28.55;;;-2.10;99.90;;;;;;5071208;28;20373;-45
2022/12/17 22:06:30;;;;;;;84.72;26.35;;;-2.80;99.90;;;;;;5068219;28;20040;-46
2022/12/17 22:08:57;;;;;;;95.97;30.70;;;-3.00;99.90;;;;;;5080156;28;20040;-44
2022/12/17 22:11:25;;;;;;;104.78;29.13;;;-2.90;99.90;;;;;;5079245;28;20044;-43
2022/12/17 22:14:10;;;;;;;91.03;28.67;;;-3.10;99.90;;;;;;5086022;28;20055;-46
2022/12/17 22:16:45;;;;;;;94.95;29.05;;;-3.10;99.90;;;;;;5076110;28;20131;-44
2022/12/17 22:19:18;;;;;;;81.47;27.45;;;-3.00;99.90;;;;;;5080589;28;20055;-44
2022/12/17 22:21:44;;;;;;;96.40;29.10;;;-3.00;99.90;;;;;;5081686;28;20036;-45
2022/12/17 22:24:21;;;;;;;89.30;26.83;;;-3.10;99.90;;;;;;5086711;28;20112;-44
2022/12/17 22:26:47;;;;;;;87.45;26.92;;;-3.20;99.90;;;;;;5086975;28;20066;-45
2022/12/17 22:32:58;;;;;;;90.43;26.75;;;-2.90;99.90;;;;;;5086728;28;20037;-46
2022/12/17 22:34:47;;;;;;;102.22;27.27;;;-3.20;99.90;;;;;;5085975;28;20079;-44
2022/12/17 22:37:13;;;;;;;86.53;27.15;;;-2.90;99.90;;;;;;5066891;28;20082;-46
2022/12/17 22:39:38;;;;;;;81.28;26.02;;;-3.00;99.90;;;;;;5085456;28;20048;-44
2022/12/17 22:44:49;;;;;;;81.80;26.27;;;-3.30;99.90;;;;;;5085008;28;20043;-45
2022/12/17 22:47:14;;;;;;;80.13;25.02;;;-3.30;99.90;;;;;;5087160;28;20036;-45
2022/12/17 22:49:40;;;;;;;82.38;25.75;;;-3.30;99.90;;;;;;5071957;28;20036;-45
2022/12/17 22:52:05;;;;;;;96.35;27.77;;;-3.30;99.90;;;;;;5087824;28;20043;-46
2022/12/17 22:54:31;;;;;;;98.97;28.45;;;-3.40;99.90;;;;;;5065977;28;20032;-44
2022/12/17 22:56:57;;;;;;;91.97;26.33;;;-3.10;99.90;;;;;;5079566;28;20570;-46
2022/12/17 22:59:23;;;;;;;101.18;27.20;;;-3.30;99.90;;;;;;5081755;28;20044;-45
2022/12/17 23:01:48;;;;;;;100.32;27.25;;;-3.20;99.90;;;;;;5078348;28;20036;-46
2022/12/17 23:04:15;;;;;;;108.38;30.13;;;-3.00;99.90;;;;;;5061840;28;20047;-44
2022/12/17 23:06:46;;;;;;;94.75;28.00;;;-3.00;99.90;;;;;;5079021;28;20056;-44
2022/12/17 23:09:14;;;;;;;100.32;27.92;;;-3.30;99.90;;;;;;5078003;28;20094;-46
2022/12/17 23:11:40;;;;;;;98.43;28.60;;;-3.40;99.90;;;;;;5080607;28;20110;-47
2022/12/17 23:14:07;;;;;;;88.63;27.73;;;-3.10;99.90;;;;;;5084850;28;20040;-44
2022/12/17 23:16:33;;;;;;;96.15;27.33;;;-3.40;99.90;;;;;;5083828;28;20048;-44
2022/12/17 23:19:00;;;;;;;98.50;27.30;;;-3.50;99.90;;;;;;5089191;28;20405;-46
2022/12/17 23:21:26;;;;;;;98.45;26.65;;;-3.30;99.90;;;;;;5093043;28;20052;-46
2022/12/17 23:23:54;;;;;;;93.22;28.52;;;-3.50;99.90;;;;;;5093495;28;20039;-46
2022/12/17 23:26:25;;;;;;;89.07;26.20;;;-3.30;99.90;;;;;;5092885;28;20048;-45
2022/12/17 23:28:53;;;;;;;84.55;26.42;;;-3.50;99.90;;;;;;5093312;28;20028;-44
2022/12/17 23:31:20;;;;;;;84.50;24.58;;;-3.60;99.90;;;;;;5093367;28;20032;-45
2022/12/17 23:33:46;;;;;;;91.57;26.02;;;-3.30;99.90;;;;;;5093374;28;20055;-43
2022/12/17 23:36:18;;;;;;;91.35;28.63;;;-2.10;99.90;;;;;;5093129;28;20040;-46
2022/12/17 23:38:44;;;;;;;76.50;25.08;;;-3.40;99.90;;;;;;5092976;28;20040;-44
2022/12/17 23:41:13;;;;;;;80.38;24.42;;;-3.50;99.90;;;;;;5091147;28;20040;-45
2022/12/17 23:43:39;;;;;;;88.20;25.70;;;-3.70;99.90;;;;;;5074465;28;20081;-43
2022/12/17 23:46:06;;;;;;;94.80;28.55;;;-3.70;99.90;;;;;;5074383;28;20292;-45
2022/12/17 23:48:34;;;;;;;88.85;25.23;;;-3.40;99.90;;;;;;5093014;28;20078;-46
2022/12/17 23:51:01;;;;;;;77.07;25.50;;;-3.70;99.90;;;;;;5093019;28;20495;-45
2022/12/17 23:53:28;;;;;;;104.90;28.00;;;-3.40;99.90;;;;;;5091307;28;20047;-45
2022/12/17 23:55:54;;;;;;;87.68;26.73;;;-3.50;99.90;;;;;;5092703;28;20044;-43
2022/12/17 23:58:20;;;;;;;69.60;23.70;;;-3.40;99.90;;;;;;5074489;28;20040;-47
